Time;durP1;ratioP1;P1;durP2;ratioP2;P2;SDS_P1;SDS_P2;PMS_P1;PMS_P2;Temp;Humidity;BMP_temperature;BMP_pressure;BME280_temperature;BME280_humidity;BME280_pressure;Samples;Min_cycle;Max_cycle;Signal;HPM_P1;HPM_P2
2021/12/16 00:09:25;;;;;;;16.08;11.57;;;5.10;99.90;;;;;;5072025;28;20095;-89
2021/12/16 00:31:21;;;;;;;;;;;5.30;99.90;;;;;;5071850;28;20075;-89
2021/12/16 00:34:00;;;;;;;16.55;11.35;;;5.30;99.90;;;;;;5071827;28;19911;-89
2021/12/16 00:36:28;;;;;;;16.85;10.65;;;5.30;99.90;;;;;;5071520;28;20427;-89
2021/12/16 00:38:54;;;;;;;17.63;11.68;;;5.20;99.90;;;;;;5071599;28;20025;-89
2021/12/16 00:41:20;;;;;;;21.48;12.23;;;5.20;99.90;;;;;;5071644;28;20024;-89
2021/12/16 00:44:04;;;;;;;18.90;11.57;;;5.30;99.90;;;;;;5053445;28;20031;-90
2021/12/16 00:46:54;;;;;;;22.05;12.50;;;5.40;99.90;;;;;;5069330;28;20045;-89
2021/12/16 00:54:33;;;;;;;21.50;12.98;;;5.40;99.90;;;;;;5069561;28;20029;-89
2021/12/16 00:57:01;;;;;;;19.45;12.73;;;5.30;99.90;;;;;;5051884;28;20029;-89
2021/12/16 00:59:33;;;;;;;15.90;10.98;;;5.30;99.90;;;;;;5069890;28;20351;-89
2021/12/16 01:02:17;;;;;;;16.90;11.95;;;5.30;99.90;;;;;;5071138;28;20352;-89
2021/12/16 01:05:47;;;;;;;21.17;12.43;;;5.30;99.90;;;;;;5071119;28;20024;-89
2021/12/16 01:41:09;;;;;;;18.13;11.40;;;5.40;99.90;;;;;;5070685;28;20086;-90
2021/12/16 01:46:00;;;;;;;23.75;13.07;;;5.40;99.90;;;;;;5070813;28;20031;-89
2021/12/16 01:51:25;;;;;;;23.10;12.93;;;5.40;99.90;;;;;;5071018;28;20047;-89
2021/12/16 01:57:15;;;;;;;21.50;12.57;;;5.40;99.90;;;;;;5070742;28;20055;-89
2021/12/16 01:59:44;;;;;;;23.73;12.75;;;5.40;99.90;;;;;;5070517;28;20029;-89
2021/12/16 02:02:36;;;;;;;24.02;12.57;;;5.40;99.90;;;;;;5052347;28;20024;-90
2021/12/16 02:10:26;;;;;;;20.73;11.77;;;5.40;99.90;;;;;;5070370;28;20114;-89
2021/12/16 02:36:45;;;;;;;19.48;11.30;;;5.30;99.90;;;;;;5074262;28;20077;-89
2021/12/16 02:39:23;;;;;;;18.45;10.98;;;5.30;99.90;;;;;;5074460;28;20024;-90
2021/12/16 02:41:57;;;;;;;20.70;11.85;;;5.20;99.90;;;;;;5073957;28;20024;-89
2021/12/16 02:48:29;;;;;;;22.27;11.50;;;5.20;99.90;;;;;;5073783;28;20024;-89
2021/12/16 02:50:12;;;;;;;29.65;12.60;;;5.20;99.90;;;;;;5073359;28;20093;-89
2021/12/16 02:52:38;;;;;;;21.38;11.27;;;5.20;99.90;;;;;;5073454;28;20032;-89
2021/12/16 02:55:06;;;;;;;20.17;11.50;;;5.20;99.90;;;;;;5055405;28;20025;-89
2021/12/16 02:57:39;;;;;;;20.00;10.68;;;5.20;99.90;;;;;;5073476;28;20025;-89
2021/12/16 03:00:11;;;;;;;22.27;11.15;;;5.20;99.90;;;;;;5055510;28;20025;-89
2021/12/16 03:02:37;;;;;;;18.58;10.38;;;5.10;99.90;;;;;;5073484;28;20509;-89
2021/12/16 03:05:03;;;;;;;18.95;10.95;;;5.10;99.90;;;;;;5073261;28;20031;-89
2021/12/16 03:07:29;;;;;;;19.67;10.80;;;5.10;99.90;;;;;;5055484;28;20050;-89
2021/12/16 03:20:58;;;;;;;19.85;10.95;;;5.00;99.90;;;;;;5073210;28;20020;-89
2021/12/16 03:24:25;;;;;;;20.63;11.48;;;5.10;99.90;;;;;;5073232;28;20059;-89
2021/12/16 03:31:43;;;;;;;20.02;10.90;;;5.10;99.90;;;;;;5073138;28;20463;-88
2021/12/16 03:37:15;;;;;;;18.85;10.48;;;5.00;99.90;;;;;;5072567;28;20024;-89
2021/12/16 03:40:06;;;;;;;21.23;11.65;;;5.00;99.90;;;;;;5077260;28;20028;-88
2021/12/16 03:42:32;;;;;;;19.52;10.68;;;5.10;99.90;;;;;;5054830;28;20032;-89
2021/12/16 03:45:07;;;;;;;22.55;11.93;;;5.10;99.90;;;;;;5072882;28;20025;-89
2021/12/16 03:47:32;;;;;;;20.08;10.55;;;5.10;99.90;;;;;;5054440;28;20056;-89
2021/12/16 03:49:58;;;;;;;19.65;11.05;;;5.10;99.90;;;;;;5072444;28;20077;-89
2021/12/16 03:52:24;;;;;;;18.27;10.10;;;5.20;99.90;;;;;;5072639;28;20020;-89
2021/12/16 03:54:54;;;;;;;21.17;11.48;;;5.20;99.90;;;;;;5072449;28;20024;-89
2021/12/16 03:57:22;;;;;;;21.40;11.98;;;5.20;99.90;;;;;;5072411;28;20025;-89
2021/12/16 03:59:49;;;;;;;22.40;11.35;;;5.20;99.90;;;;;;5072450;28;20020;-90
2021/12/16 04:02:24;;;;;;;23.15;11.77;;;5.20;99.90;;;;;;5054307;28;20029;-89
2021/12/16 04:04:51;;;;;;;25.63;12.55;;;5.20;99.90;;;;;;5054448;28;20103;-88
2021/12/16 04:07:23;;;;;;;22.48;11.70;;;5.20;99.90;;;;;;5072399;28;20105;-89
2021/12/16 04:09:51;;;;;;;24.75;12.38;;;5.20;99.90;;;;;;5054033;28;20414;-89
2021/12/16 04:12:20;;;;;;;25.77;11.90;;;5.30;99.90;;;;;;5072095;28;20224;-89
2021/12/16 04:14:49;;;;;;;24.80;12.05;;;5.30;99.90;;;;;;5072034;28;20017;-89
2021/12/16 04:17:18;;;;;;;33.15;12.80;;;5.30;99.90;;;;;;5071931;28;20192;-89
2021/12/16 04:19:46;;;;;;;23.08;12.35;;;5.30;99.90;;;;;;5071931;28;20751;-89
2021/12/16 04:22:18;;;;;;;22.95;11.70;;;5.30;99.90;;;;;;5071748;28;20103;-90
2021/12/16 04:24:47;;;;;;;23.52;12.02;;;5.30;99.90;;;;;;5053912;28;20029;-89
2021/12/16 04:27:14;;;;;;;22.35;11.70;;;5.40;99.90;;;;;;5054288;28;20554;-88
2021/12/16 04:29:40;;;;;;;24.08;11.40;;;5.30;99.90;;;;;;5071906;28;20028;-88
2021/12/16 04:32:07;;;;;;;21.15;11.35;;;5.30;99.90;;;;;;5053582;28;20094;-90
2021/12/16 04:34:33;;;;;;;21.15;11.35;;;5.20;99.90;;;;;;5071431;28;20027;-89
2021/12/16 04:37:00;;;;;;;18.95;10.48;;;5.30;99.90;;;;;;5071446;28;20025;-89
2021/12/16 04:39:28;;;;;;;24.73;11.00;;;5.30;99.90;;;;;;5071672;28;20025;-89
2021/12/16 04:41:56;;;;;;;22.67;11.50;;;5.30;99.90;;;;;;5071486;28;20256;-88
2021/12/16 04:44:24;;;;;;;21.92;11.27;;;5.30;99.90;;;;;;5053709;28;20047;-89
2021/12/16 04:46:50;;;;;;;19.75;10.98;;;5.20;99.90;;;;;;5070959;28;20036;-90
2021/12/16 04:49:17;;;;;;;21.33;10.50;;;5.20;99.90;;;;;;5071508;28;20064;-89
2021/12/16 04:51:47;;;;;;;19.27;9.98;;;5.20;99.90;;;;;;5053128;28;20086;-90
2021/12/16 04:54:17;;;;;;;19.95;10.60;;;5.20;99.90;;;;;;5071222;28;20030;-89
2021/12/16 04:56:42;;;;;;;18.45;9.50;;;5.20;99.90;;;;;;5071230;28;20081;-90
2021/12/16 04:59:10;;;;;;;17.60;9.57;;;5.20;99.90;;;;;;5071109;28;20431;-89
2021/12/16 05:01:42;;;;;;;19.92;11.13;;;5.20;99.90;;;;;;5071325;28;20099;-89
2021/12/16 05:04:08;;;;;;;21.42;11.15;;;5.30;99.90;;;;;;5052977;28;20029;-90
2021/12/16 05:06:36;;;;;;;18.55;10.57;;;5.30;99.90;;;;;;5071440;28;20021;-90
2021/12/16 05:09:04;;;;;;;19.27;10.00;;;5.30;99.90;;;;;;5053471;28;20028;-89
2021/12/16 05:11:33;;;;;;;23.55;10.88;;;5.30;99.90;;;;;;5053317;28;20044;-90
2021/12/16 05:13:59;;;;;;;20.73;10.93;;;5.30;99.90;;;;;;5053181;28;20028;-89
2021/12/16 05:16:25;;;;;;;21.02;10.90;;;5.30;99.90;;;;;;5070724;28;20024;-88
2021/12/16 05:18:53;;;;;;;24.63;11.68;;;5.30;99.90;;;;;;5052981;28;20032;-90
2021/12/16 05:21:43;;;;;;;53.50;15.43;;;5.40;99.90;;;;;;5071143;28;20171;-90
2021/12/16 05:24:27;;;;;;;23.70;11.80;;;5.40;99.90;;;;;;5074177;28;20067;-89
2021/12/16 05:26:59;;;;;;;26.05;12.25;;;5.50;99.90;;;;;;5070973;28;20200;-89
2021/12/16 05:29:25;;;;;;;22.73;10.75;;;5.50;99.90;;;;;;5053083;28;20056;-89
2021/12/16 05:31:53;;;;;;;20.27;10.98;;;5.50;99.90;;;;;;5070742;28;20075;-89
2021/12/16 05:34:19;;;;;;;78.63;18.17;;;5.50;99.90;;;;;;5070551;28;20021;-88
2021/12/16 05:36:45;;;;;;;21.55;11.40;;;5.50;99.90;;;;;;5070787;28;20035;-89
2021/12/16 05:39:14;;;;;;;247.00;39.78;;;5.50;99.90;;;;;;5052677;28;20021;-89
2021/12/16 05:41:40;;;;;;;18.83;10.73;;;5.50;99.90;;;;;;5078476;28;20023;-89
2021/12/16 05:44:06;;;;;;;18.08;9.52;;;5.40;99.90;;;;;;5081442;28;20020;-89
2021/12/16 05:46:33;;;;;;;19.50;10.93;;;5.30;99.90;;;;;;5082404;28;20183;-89
2021/12/16 05:49:01;;;;;;;18.55;10.40;;;5.30;99.90;;;;;;5061228;28;20416;-88
2021/12/16 05:51:30;;;;;;;19.65;10.23;;;5.30;99.90;;;;;;5076405;28;20070;-90
2021/12/16 05:53:57;;;;;;;20.40;10.40;;;5.40;99.90;;;;;;5073212;28;20028;-89
2021/12/16 05:56:23;;;;;;;17.00;9.45;;;5.40;99.90;;;;;;5078329;28;20024;-89
2021/12/16 05:58:50;;;;;;;18.63;10.38;;;5.40;99.90;;;;;;5079957;28;20423;-89
2021/12/16 06:01:22;;;;;;;19.90;10.43;;;5.30;99.90;;;;;;5076444;28;20326;-89
2021/12/16 06:03:49;;;;;;;17.85;9.63;;;5.40;99.90;;;;;;5074244;28;20583;-89
2021/12/16 06:06:16;;;;;;;16.67;9.18;;;5.40;99.90;;;;;;5073047;28;20032;-89
2021/12/16 06:08:42;;;;;;;17.10;9.73;;;5.40;99.90;;;;;;5072848;28;20025;-89
2021/12/16 06:11:22;;;;;;;17.08;10.07;;;5.40;99.90;;;;;;5073008;28;20098;-89
2021/12/16 06:14:09;;;;;;;17.73;9.43;;;5.40;99.90;;;;;;5073540;28;20096;-89
2021/12/16 06:22:33;;;;;;;16.58;9.40;;;5.40;99.90;;;;;;5088418;28;20094;-88
2021/12/16 06:27:48;;;;;;;19.17;9.63;;;5.50;99.90;;;;;;5074396;28;20051;-89
2021/12/16 06:30:16;;;;;;;20.08;10.02;;;5.50;99.90;;;;;;5074132;28;20029;-89
2021/12/16 06:32:42;;;;;;;18.65;9.82;;;5.50;99.90;;;;;;5073955;28;20501;-90
2021/12/16 06:35:10;;;;;;;18.23;9.85;;;5.60;99.90;;;;;;5074039;28;20036;-90
2021/12/16 06:37:37;;;;;;;20.63;10.13;;;5.60;99.90;;;;;;5056605;28;20491;-90
2021/12/16 06:40:08;;;;;;;17.77;10.52;;;5.60;99.90;;;;;;5073775;28;20021;-90
2021/12/16 06:42:36;;;;;;;23.35;11.02;;;5.60;99.90;;;;;;5075373;28;20025;-90
2021/12/16 06:45:08;;;;;;;16.77;9.70;;;5.70;99.90;;;;;;5074051;28;20032;-90
2021/12/16 06:47:58;;;;;;;18.00;10.48;;;5.60;99.90;;;;;;5055571;28;20048;-90
2021/12/16 06:50:36;;;;;;;17.65;10.15;;;5.60;99.90;;;;;;5055547;28;20420;-90
2021/12/16 06:53:05;;;;;;;32.45;13.00;;;5.60;99.90;;;;;;5055766;28;20027;-89
2021/12/16 06:58:18;;;;;;;19.63;10.70;;;5.60;99.90;;;;;;5073648;28;20028;-90
2021/12/16 07:00:48;;;;;;;17.55;9.93;;;5.60;99.90;;;;;;5073923;28;20024;-90
2021/12/16 07:03:23;;;;;;;17.05;9.75;;;5.60;99.90;;;;;;5055735;28;20404;-90
2021/12/16 07:05:53;;;;;;;20.23;11.27;;;5.50;99.90;;;;;;5074242;28;20174;-90
2021/12/16 07:08:22;;;;;;;21.13;11.10;;;5.50;99.90;;;;;;5073306;28;20043;-90
2021/12/16 07:10:50;;;;;;;15.35;9.43;;;5.60;99.90;;;;;;5073128;28;20028;-90
2021/12/16 07:13:29;;;;;;;18.60;10.23;;;5.70;99.90;;;;;;5073223;28;20027;-90
2021/12/16 07:15:56;;;;;;;16.60;9.55;;;5.70;99.90;;;;;;5073367;28;20025;-90
2021/12/16 07:18:23;;;;;;;17.52;9.77;;;5.60;99.90;;;;;;5073247;28;20032;-90
2021/12/16 07:20:48;;;;;;;19.25;9.38;;;5.60;99.90;;;;;;5073732;28;20442;-90
2021/12/16 07:23:14;;;;;;;18.08;9.77;;;5.60;99.90;;;;;;5073759;28;20029;-90
2021/12/16 07:25:40;;;;;;;17.33;9.23;;;5.60;99.90;;;;;;5055862;28;20024;-90
2021/12/16 07:28:07;;;;;;;19.33;10.60;;;5.60;99.90;;;;;;5056464;28;20370;-91
2021/12/16 07:30:39;;;;;;;16.70;9.68;;;5.60;99.90;;;;;;5074902;28;20088;-90
2021/12/16 07:33:07;;;;;;;17.48;10.68;;;5.50;99.90;;;;;;5055740;28;20020;-90
2021/12/16 07:35:34;;;;;;;19.10;10.35;;;5.60;99.90;;;;;;5056592;28;20447;-90
2021/12/16 07:38:00;;;;;;;21.20;10.70;;;5.60;99.90;;;;;;5073858;28;20032;-90
2021/12/16 07:40:29;;;;;;;18.20;10.40;;;5.70;99.90;;;;;;5056572;28;20027;-90
2021/12/16 07:43:11;;;;;;;14.82;8.73;;;5.70;99.90;;;;;;5074172;28;20035;-90
2021/12/16 07:45:40;;;;;;;15.15;9.85;;;5.60;99.90;;;;;;5056302;28;20039;-90
2021/12/16 07:48:06;;;;;;;14.98;9.15;;;5.60;99.90;;;;;;5074699;28;20036;-90
2021/12/16 07:50:34;;;;;;;16.77;9.52;;;5.60;99.90;;;;;;5055377;28;20033;-90
2021/12/16 07:53:00;;;;;;;17.83;10.35;;;5.60;99.90;;;;;;5073055;28;20032;-90
2021/12/16 07:55:27;;;;;;;18.10;12.02;;;5.60;99.90;;;;;;5054848;28;20078;-90
2021/12/16 07:57:52;;;;;;;17.38;10.63;;;5.70;99.90;;;;;;5073671;28;20060;-90
2021/12/16 08:00:25;;;;;;;16.90;9.75;;;5.70;99.90;;;;;;5073577;28;20492;-90
2021/12/16 08:02:51;;;;;;;18.42;10.10;;;5.70;99.90;;;;;;5055342;28;20032;-90
2021/12/16 08:05:19;;;;;;;17.65;10.18;;;5.70;99.90;;;;;;5073473;28;20028;-90
2021/12/16 08:07:45;;;;;;;17.10;8.95;;;5.70;99.90;;;;;;5074822;28;20482;-90
2021/12/16 08:10:14;;;;;;;12.02;7.72;;;5.70;99.90;;;;;;5072681;28;20088;-90
2021/12/16 08:12:39;;;;;;;8.88;5.75;;;5.80;99.90;;;;;;5054427;28;20472;-90
2021/12/16 08:15:06;;;;;;;9.05;5.47;;;5.70;99.90;;;;;;5054102;28;20070;-89
2021/12/16 08:17:32;;;;;;;8.60;5.10;;;5.60;99.90;;;;;;5071850;28;20033;-90
2021/12/16 08:19:58;;;;;;;8.38;5.28;;;5.60;99.90;;;;;;5081851;28;20032;-90
2021/12/16 08:22:24;;;;;;;9.25;5.15;;;5.70;99.90;;;;;;5057421;28;20032;-90
2021/12/16 08:24:50;;;;;;;6.80;4.72;;;5.60;99.90;;;;;;5073600;28;20031;-90
2021/12/16 08:27:16;;;;;;;8.52;5.32;;;5.60;99.90;;;;;;5074189;28;20396;-90
2021/12/16 08:29:43;;;;;;;7.00;4.85;;;5.60;99.90;;;;;;5054069;28;20024;-90
2021/12/16 08:32:09;;;;;;;7.13;4.78;;;5.60;99.90;;;;;;5073296;28;20043;-89
2021/12/16 08:34:38;;;;;;;9.63;5.78;;;5.70;99.90;;;;;;5073571;28;20020;-91
2021/12/16 08:37:06;;;;;;;8.40;5.85;;;5.70;99.90;;;;;;5055092;28;20056;-90
2021/12/16 08:39:33;;;;;;;8.48;5.25;;;5.70;99.90;;;;;;5073158;28;20024;-90
2021/12/16 08:42:01;;;;;;;9.90;6.20;;;5.60;99.90;;;;;;5073630;28;20027;-90
2021/12/16 08:44:31;;;;;;;9.15;5.97;;;5.60;99.90;;;;;;5074567;28;20016;-91
2021/12/16 08:47:02;;;;;;;9.18;5.68;;;5.70;99.90;;;;;;5038482;28;20090;-90
2021/12/16 08:49:27;;;;;;;8.88;5.85;;;5.70;99.90;;;;;;5053707;28;20040;-90
2021/12/16 08:51:56;;;;;;;9.43;6.47;;;5.70;99.90;;;;;;5052592;28;20037;-94
2021/12/16 08:54:23;;;;;;;7.68;5.18;;;5.70;99.90;;;;;;5057126;28;20029;-90
2021/12/16 08:56:51;;;;;;;8.23;5.47;;;5.60;99.90;;;;;;5052660;28;20028;-90
2021/12/16 08:59:17;;;;;;;9.63;6.10;;;5.60;99.90;;;;;;5051488;28;20090;-90
2021/12/16 09:01:46;;;;;;;9.73;6.13;;;5.60;99.90;;;;;;5050394;28;20030;-91
2021/12/16 09:04:13;;;;;;;11.20;5.82;;;5.60;99.90;;;;;;5052296;28;20106;-90
2021/12/16 09:06:38;;;;;;;8.57;6.05;;;5.70;99.90;;;;;;5050312;28;20276;-90
2021/12/16 09:09:06;;;;;;;11.02;6.50;;;5.70;99.90;;;;;;5050635;28;20261;-90
2021/12/16 09:11:38;;;;;;;9.98;6.35;;;5.80;99.90;;;;;;5053026;28;20181;-91
2021/12/16 09:14:04;;;;;;;8.98;6.07;;;5.80;99.90;;;;;;5052802;28;20029;-90
2021/12/16 09:16:32;;;;;;;9.30;6.07;;;5.80;99.90;;;;;;5050949;28;20029;-90
2021/12/16 09:18:58;;;;;;;15.25;7.40;;;6.00;99.90;;;;;;5051843;28;20571;-90
2021/12/16 09:21:28;;;;;;;8.48;5.43;;;6.00;99.90;;;;;;5050146;28;20033;-90
2021/12/16 09:23:55;;;;;;;8.88;6.13;;;6.00;99.90;;;;;;5050028;28;20029;-91
2021/12/16 09:26:23;;;;;;;8.43;5.57;;;5.90;99.90;;;;;;5051078;28;20529;-90
2021/12/16 09:28:49;;;;;;;9.27;5.93;;;6.00;99.90;;;;;;5053429;28;20025;-90
2021/12/16 09:31:18;;;;;;;8.57;5.60;;;6.00;99.90;;;;;;5051166;28;20033;-91
2021/12/16 09:33:50;;;;;;;8.70;5.00;;;6.00;99.90;;;;;;5052444;28;20099;-91
2021/12/16 09:36:18;;;;;;;8.43;4.72;;;6.00;99.90;;;;;;5049803;28;20024;-91
2021/12/16 09:38:45;;;;;;;7.68;4.38;;;6.00;99.90;;;;;;5051609;28;20112;-91
2021/12/16 09:41:12;;;;;;;10.02;5.38;;;6.00;99.90;;;;;;5051154;28;21058;-91
2021/12/16 09:43:41;;;;;;;7.32;5.10;;;6.00;99.90;;;;;;5049279;28;20025;-91
2021/12/16 09:46:11;;;;;;;7.60;4.90;;;6.00;99.90;;;;;;5051161;28;20013;-90
2021/12/16 09:48:39;;;;;;;7.55;5.28;;;6.00;99.90;;;;;;5069834;28;20040;-91
2021/12/16 09:51:08;;;;;;;8.20;5.05;;;6.10;99.90;;;;;;5069707;28;20024;-90
2021/12/16 09:53:37;;;;;;;7.15;4.95;;;6.20;99.90;;;;;;5069787;28;20025;-90
2021/12/16 09:56:08;;;;;;;6.78;4.22;;;6.20;99.90;;;;;;5070265;28;20028;-90
2021/12/16 09:58:40;;;;;;;6.72;4.35;;;6.20;99.90;;;;;;5059181;28;20009;-90
2021/12/16 10:01:09;;;;;;;7.55;4.45;;;6.20;99.90;;;;;;5077701;28;20012;-90
2021/12/16 10:03:37;;;;;;;7.00;4.07;;;6.20;99.90;;;;;;5096147;28;20024;-90
2021/12/16 10:06:04;;;;;;;6.15;4.20;;;6.20;99.90;;;;;;5078765;28;20009;-90
2021/12/16 10:08:29;;;;;;;6.03;3.85;;;6.20;99.90;;;;;;5078566;28;20036;-91
2021/12/16 10:10:56;;;;;;;8.07;4.95;;;6.20;99.90;;;;;;5078505;28;20020;-91
2021/12/16 10:13:33;;;;;;;7.15;4.38;;;6.30;99.90;;;;;;5095609;28;20043;-90
2021/12/16 10:18:35;;;;;;;7.93;4.45;;;6.30;99.90;;;;;;5096015;28;20009;-91
2021/12/16 10:21:05;;;;;;;7.88;4.75;;;6.30;99.90;;;;;;5096062;28;20046;-90
2021/12/16 10:23:40;;;;;;;6.25;4.50;;;6.30;99.90;;;;;;5095895;28;20009;-90
2021/12/16 10:26:06;;;;;;;5.18;3.60;;;6.40;99.90;;;;;;5078640;28;20029;-90
2021/12/16 10:28:38;;;;;;;6.95;4.50;;;6.50;99.90;;;;;;5095300;28;20035;-90
2021/12/16 10:31:17;;;;;;;7.35;4.00;;;6.50;99.90;;;;;;5090854;28;20052;-90
2021/12/16 10:34:02;;;;;;;7.07;4.45;;;6.50;99.90;;;;;;5075410;28;20013;-90
2021/12/16 10:36:31;;;;;;;6.18;4.30;;;6.40;99.90;;;;;;5095873;28;20036;-90
2021/12/16 10:38:59;;;;;;;8.27;5.30;;;6.50;99.90;;;;;;5095723;28;20013;-90
2021/12/16 10:41:42;;;;;;;6.60;4.72;;;6.70;99.90;;;;;;5078389;28;20013;-90
2021/12/16 10:44:14;;;;;;;7.57;4.30;;;6.80;99.90;;;;;;5075529;28;20089;-90
2021/12/16 10:46:45;;;;;;;7.63;5.00;;;6.90;99.90;;;;;;5055957;28;20531;-91
2021/12/16 10:49:15;;;;;;;7.30;4.60;;;7.00;99.90;;;;;;5073847;28;20024;-90
2021/12/16 10:51:47;;;;;;;6.38;4.07;;;7.00;99.90;;;;;;5074860;28;20125;-91
2021/12/16 10:54:25;;;;;;;5.47;4.20;;;7.00;99.90;;;;;;5074107;28;20389;-91
2021/12/16 10:57:12;;;;;;;7.95;4.40;;;7.00;99.90;;;;;;5074045;28;20071;-91
2021/12/16 10:59:44;;;;;;;7.07;4.40;;;7.10;99.90;;;;;;5056427;28;20547;-91
2021/12/16 11:02:14;;;;;;;6.63;4.70;;;7.00;99.90;;;;;;5055664;28;20032;-91
2021/12/16 11:04:42;;;;;;;7.78;4.97;;;7.00;99.90;;;;;;5056264;28;20533;-90
2021/12/16 11:07:16;;;;;;;5.57;3.88;;;7.00;99.90;;;;;;5055872;28;20028;-91
2021/12/16 11:10:07;;;;;;;5.93;4.32;;;7.00;99.90;;;;;;5083919;28;20074;-91
2021/12/16 11:12:53;;;;;;;6.85;4.30;;;7.10;99.90;;;;;;5059832;28;20040;-91
2021/12/16 11:15:31;;;;;;;7.53;4.60;;;7.30;99.90;;;;;;5065602;28;20099;-91
2021/12/16 11:18:07;;;;;;;6.18;4.30;;;7.30;99.90;;;;;;5067046;28;20035;-91
2021/12/16 11:20:47;;;;;;;6.50;4.22;;;7.30;99.90;;;;;;5065721;28;20099;-91
2021/12/16 11:23:17;;;;;;;5.90;4.32;;;7.40;99.90;;;;;;5056281;28;20036;-91
2021/12/16 11:25:49;;;;;;;5.63;4.30;;;7.40;99.90;;;;;;5055549;28;20049;-90
2021/12/16 11:28:28;;;;;;;6.43;4.00;;;7.30;99.90;;;;;;5055309;28;20025;-91
2021/12/16 11:31:23;;;;;;;6.07;4.07;;;7.20;99.90;;;;;;5054712;28;20036;-90
2021/12/16 11:33:52;;;;;;;6.07;4.10;;;7.20;99.90;;;;;;5058844;28;20031;-90
2021/12/16 11:36:25;;;;;;;5.75;4.03;;;7.30;99.90;;;;;;5066233;28;20028;-92
2021/12/16 11:38:59;;;;;;;5.47;4.03;;;7.30;99.90;;;;;;5064796;28;20107;-91
2021/12/16 11:41:28;;;;;;;5.65;4.05;;;7.50;99.90;;;;;;5073743;28;20028;-90
2021/12/16 11:44:16;;;;;;;5.05;3.63;;;7.40;99.90;;;;;;5092247;28;20278;-90
2021/12/16 11:47:02;;;;;;;4.53;3.47;;;7.30;99.90;;;;;;5093622;28;20097;-90
2021/12/16 11:49:36;;;;;;;7.00;3.58;;;7.50;99.90;;;;;;5060525;28;20032;-89
2021/12/16 11:52:21;;;;;;;5.50;3.80;;;7.70;99.90;;;;;;5072516;28;20053;-89
2021/12/16 11:54:56;;;;;;;6.00;3.88;;;7.60;99.90;;;;;;5054422;28;20292;-89
2021/12/16 11:57:32;;;;;;;4.93;3.92;;;7.40;99.90;;;;;;5072520;28;20028;-89
2021/12/16 12:00:07;;;;;;;5.90;4.43;;;7.40;99.90;;;;;;5054494;28;20032;-89
2021/12/16 12:02:38;;;;;;;5.05;3.88;;;7.50;99.90;;;;;;5072215;28;20404;-90
2021/12/16 12:05:36;;;;;;;6.80;4.85;;;7.40;99.90;;;;;;5072227;28;20572;-90
2021/12/16 12:08:09;;;;;;;5.80;3.90;;;7.30;99.90;;;;;;5057539;28;20094;-90
2021/12/16 12:10:41;;;;;;;6.68;4.13;;;7.40;99.90;;;;;;5056160;28;20279;-89
2021/12/16 12:13:10;;;;;;;5.07;3.90;;;7.40;99.90;;;;;;5072193;28;20554;-89
2021/12/16 12:16:16;;;;;;;6.47;4.30;;;7.50;99.90;;;;;;5053945;28;20025;-89
2021/12/16 12:18:49;;;;;;;4.97;3.85;;;7.60;99.90;;;;;;5053237;28;20423;-88
2021/12/16 12:21:21;;;;;;;4.95;3.60;;;7.70;99.90;;;;;;5072105;28;20074;-89
2021/12/16 12:23:50;;;;;;;5.35;4.03;;;7.70;99.90;;;;;;5072421;28;20032;-88
2021/12/16 12:26:16;;;;;;;7.85;5.35;;;7.70;99.90;;;;;;5071837;28;20532;-88
2021/12/16 12:28:53;;;;;;;4.80;3.60;;;7.70;99.90;;;;;;5072101;28;20111;-88
2021/12/16 12:31:21;;;;;;;5.35;3.67;;;7.80;99.90;;;;;;5071678;28;20036;-88
2021/12/16 12:33:48;;;;;;;7.20;3.80;;;7.80;99.90;;;;;;5071581;28;20500;-88
2021/12/16 12:36:14;;;;;;;5.72;3.92;;;7.80;99.90;;;;;;5071743;28;20488;-88
2021/12/16 12:38:42;;;;;;;5.57;3.70;;;7.90;99.90;;;;;;5053378;28;20423;-88
2021/12/16 12:41:08;;;;;;;5.50;3.50;;;7.80;99.90;;;;;;5053555;28;20107;-88
2021/12/16 12:43:34;;;;;;;6.40;3.67;;;7.80;99.90;;;;;;5071807;28;20115;-88
2021/12/16 12:46:05;;;;;;;9.13;3.90;;;7.80;99.90;;;;;;5053596;28;20043;-88
2021/12/16 12:48:38;;;;;;;4.18;3.20;;;7.90;99.90;;;;;;5071617;28;20048;-89
2021/12/16 12:51:05;;;;;;;4.55;3.20;;;7.90;99.90;;;;;;5053918;28;20037;-90
2021/12/16 12:53:47;;;;;;;4.53;3.60;;;7.80;99.90;;;;;;5053692;28;20025;-90
2021/12/16 12:56:31;;;;;;;4.15;3.20;;;7.70;99.90;;;;;;5072367;28;20024;-90
2021/12/16 12:59:04;;;;;;;5.05;3.22;;;7.70;99.90;;;;;;5071405;28;20048;-90
2021/12/16 13:01:55;;;;;;;3.92;3.25;;;7.80;99.90;;;;;;5053324;28;20052;-90
2021/12/16 13:04:26;;;;;;;3.58;2.85;;;7.70;99.90;;;;;;5043272;28;20408;-90
2021/12/16 13:06:58;;;;;;;3.65;2.85;;;7.70;99.90;;;;;;5071149;28;20029;-90
2021/12/16 13:09:29;;;;;;;4.25;2.90;;;7.70;99.90;;;;;;5053498;28;20028;-90
2021/12/16 13:11:56;;;;;;;4.57;3.33;;;7.70;99.90;;;;;;5053203;28;20489;-89
2021/12/16 13:14:36;;;;;;;5.18;3.33;;;7.70;99.90;;;;;;5053124;28;20534;-90
2021/12/16 13:23:19;;;;;;;4.95;3.33;;;7.70;99.90;;;;;;5071234;28;20024;-90
2021/12/16 13:31:04;;;;;;;3.92;2.95;;;7.80;99.90;;;;;;5071084;28;20072;-89
2021/12/16 13:33:43;;;;;;;5.43;3.38;;;7.80;99.90;;;;;;5071116;28;20548;-89
2021/12/16 13:36:26;;;;;;;4.03;3.13;;;7.80;99.90;;;;;;5070742;28;20488;-89
2021/12/16 13:38:53;;;;;;;4.05;2.97;;;7.80;99.90;;;;;;5070957;28;20465;-90
2021/12/16 13:41:23;;;;;;;4.97;2.85;;;7.90;99.90;;;;;;5071697;28;20044;-90
2021/12/16 13:44:14;;;;;;;5.95;3.78;;;8.00;99.90;;;;;;5071396;28;20063;-90
2021/12/16 13:47:24;;;;;;;3.65;2.88;;;7.90;99.90;;;;;;5072253;28;20041;-90
2021/12/16 14:04:40;;;;;;;4.20;3.08;;;7.60;99.90;;;;;;5070879;28;20097;-89
2021/12/16 14:07:40;;;;;;;4.32;2.40;;;7.70;99.90;;;;;;5070611;28;20021;-89
2021/12/16 14:10:04;;;;;;;4.70;2.75;;;7.60;99.90;;;;;;5069236;28;20043;-90
2021/12/16 14:15:20;;;;;;;4.18;2.40;;;7.70;99.90;;;;;;5070343;28;20025;-89
2021/12/16 14:23:17;;;;;;;3.30;2.33;;;7.60;99.90;;;;;;5074637;28;20095;-88
2021/12/16 14:26:10;;;;;;;4.95;3.03;;;7.70;99.90;;;;;;5056178;28;20077;-89
2021/12/16 14:31:48;;;;;;;3.08;2.15;;;7.70;99.90;;;;;;5074420;28;20071;-89
2021/12/16 14:40:09;;;;;;;3.30;2.40;;;7.90;99.90;;;;;;5073945;28;20021;-89
2021/12/16 14:45:23;;;;;;;4.95;2.75;;;7.80;99.90;;;;;;5074068;28;20469;-89
2021/12/16 14:50:35;;;;;;;3.20;2.13;;;7.90;99.90;;;;;;5073930;28;20559;-89
2021/12/16 14:53:13;;;;;;;3.47;2.53;;;7.90;99.90;;;;;;5073809;28;20028;-89
2021/12/16 14:55:39;;;;;;;6.00;3.30;;;8.00;99.90;;;;;;5074464;28;20257;-89
2021/12/16 14:58:05;;;;;;;4.82;2.92;;;8.00;99.90;;;;;;5074172;28;20274;-89
2021/12/16 15:00:44;;;;;;;4.30;2.88;;;8.10;99.90;;;;;;5073842;28;20013;-89
2021/12/16 15:03:18;;;;;;;3.95;2.72;;;8.00;99.90;;;;;;5056202;28;20455;-89
2021/12/16 15:05:47;;;;;;;;;;;8.00;99.90;;;;;;5039431;28;20485;-89
2021/12/16 15:08:39;;;;;;;4.18;2.88;;;7.80;99.90;;;;;;5073526;28;19928;-89
2021/12/16 15:11:09;;;;;;;4.40;2.85;;;7.80;99.90;;;;;;5073503;28;20115;-89
2021/12/16 15:13:42;;;;;;;5.60;3.53;;;7.60;99.90;;;;;;5074279;28;20037;-90
2021/12/16 15:16:53;;;;;;;5.57;3.85;;;7.50;99.90;;;;;;5073642;28;20020;-90
2021/12/16 15:39:38;;;;;;;6.90;4.18;;;7.20;99.90;;;;;;5073293;28;20031;-90
2021/12/16 15:44:13;;;;;;;6.30;4.18;;;7.20;99.90;;;;;;5073821;28;20035;-90
2021/12/16 15:46:40;;;;;;;5.72;4.03;;;7.20;99.90;;;;;;5073605;28;20037;-90
2021/12/16 15:49:07;;;;;;;8.30;4.40;;;7.10;99.90;;;;;;5055389;28;20032;-90
2021/12/16 15:51:34;;;;;;;7.55;4.40;;;7.10;99.90;;;;;;5058018;28;20032;-90
2021/12/16 15:54:01;;;;;;;7.00;5.18;;;7.10;99.90;;;;;;5061555;28;20021;-90
2021/12/16 15:56:38;;;;;;;8.65;4.63;;;7.00;99.90;;;;;;5073279;28;20082;-90
2021/12/16 15:59:12;;;;;;;7.47;4.72;;;7.00;99.90;;;;;;5055303;28;20036;-90
2021/12/16 16:01:45;;;;;;;7.25;4.72;;;7.00;99.90;;;;;;5073107;28;20028;-90
2021/12/16 16:04:20;;;;;;;7.33;5.00;;;6.90;99.90;;;;;;5072717;28;20031;-90
2021/12/16 16:06:52;;;;;;;6.97;4.35;;;6.90;99.90;;;;;;5074755;28;20043;-90
2021/12/16 16:09:19;;;;;;;6.13;4.30;;;6.90;99.90;;;;;;5054770;28;20020;-90
2021/12/16 16:11:52;;;;;;;7.05;5.20;;;6.90;99.90;;;;;;5055025;28;20037;-89
2021/12/16 16:14:20;;;;;;;6.22;4.93;;;6.80;99.90;;;;;;5072566;28;20464;-90
2021/12/16 16:16:50;;;;;;;8.13;5.75;;;6.70;99.90;;;;;;5056113;28;20119;-90
2021/12/16 16:19:37;;;;;;;10.35;6.43;;;6.70;99.90;;;;;;5054587;28;20119;-90
2021/12/16 16:22:05;;;;;;;9.23;5.95;;;6.70;99.90;;;;;;5055719;28;20488;-89
2021/12/16 16:24:35;;;;;;;10.65;5.53;;;6.70;99.90;;;;;;5055420;28;20127;-89
2021/12/16 16:27:12;;;;;;;7.47;5.25;;;6.60;99.90;;;;;;5056810;28;20075;-90
2021/12/16 16:29:44;;;;;;;8.43;5.28;;;6.60;99.90;;;;;;5073807;28;20017;-90
2021/12/16 16:32:09;;;;;;;6.90;4.97;;;6.60;99.90;;;;;;5055171;28;20036;-90
2021/12/16 16:35:01;;;;;;;9.25;5.40;;;6.50;99.90;;;;;;5073544;28;20032;-90
2021/12/16 16:37:29;;;;;;;8.90;5.47;;;6.50;99.90;;;;;;5069300;28;20042;-90
2021/12/16 16:39:58;;;;;;;9.60;5.50;;;6.40;99.90;;;;;;5072247;28;20078;-90
2021/12/16 16:42:32;;;;;;;8.38;5.45;;;6.40;99.90;;;;;;5071588;28;20025;-90